KHIE/HIE METAR and TAF weather

Enter ICAO airport designator
Station Type Date Time Source
KHIE METAR 2021/07/28 02:52 UTC NOAA

KHIE 280252Z AUTO 00000KT 9SM BKN004 BKN080 OVC120 15/14 A2999 RMK AO2 SLP154 T01500144 53006


Station Type Date Time Source
KHIE Decoded METAR 2021/07/28 02:52 UTC NOAA

MT WASHINGTON REGIONAL AIRPORT , NH, United States (KHIE) 44-22N 71-33W 318M
Jul 27, 2021 - 10:52 PM EDT / 2021.07.28 0252 UTC
Wind: Calm:0
Visibility: 9 mile(s):0
Sky conditions: overcast
Temperature: 59.0 F (15.0 C)
Dew Point: 57.9 F (14.4 C)
Relative Humidity: 96%
Pressure (altimeter): 29.99 in. Hg (1015 hPa)
Pressure tendency: 0.02 inches (0.6 hPa) higher than three hours ago
ob: KHIE 280252Z AUTO 00000KT 9SM BKN004 BKN080 OVC120 15/14 A2999 RMK AO2 SLP154 T01500144 53006
cycle: 3

Station Type Date Time Source
KHIE TAF 2021/07/28 03:58 UTC NOAA

TAF
AMD KHIE 280258Z 2803/2824 00000KT 3SM BR BKN004
FM280900 00000KT 1/2SM FG OVC002
FM281200 00000KT P6SM OVC050
FM281800 33005KT P6SM SCT250

Example: see airport list